Time;durP1;ratioP1;P1;durP2;ratioP2;P2;SDS_P1;SDS_P2;PMS_P1;PMS_P2;Temp;Humidity;BMP_temperature;BMP_pressure;BME280_temperature;BME280_humidity;BME280_pressure;Samples;Min_cycle;Max_cycle;Signal;HPM_P1;HPM_P2
2022/03/18 04:24:01;;;;;;;24.85;9.90;;;8.10;99.90;;;;;;6197144;22;20051;-92
2022/03/18 06:02:01;;;;;;;40.47;12.93;;;7.90;99.90;;;;;;6192466;22;20034;-94
2022/03/18 06:04:31;;;;;;;36.50;13.27;;;7.90;99.90;;;;;;6136410;23;20028;-90
2022/03/18 06:06:59;;;;;;;34.55;13.75;;;8.00;99.90;;;;;;6130941;23;20010;-92
2022/03/18 06:12:11;;;;;;;36.15;14.02;;;8.10;99.90;;;;;;6155620;23;20009;-93
2022/03/18 06:14:38;;;;;;;42.17;18.27;;;8.20;99.90;;;;;;6132983;23;20415;-93
2022/03/18 06:17:12;;;;;;;50.53;20.05;;;8.40;99.90;;;;;;6132678;23;20013;-93
2022/03/18 06:19:41;;;;;;;40.00;16.98;;;8.50;99.90;;;;;;6157206;23;20056;-92
2022/03/18 06:22:11;;;;;;;33.10;14.75;;;8.60;99.90;;;;;;6132904;23;20005;-93
2022/03/18 06:24:38;;;;;;;26.13;12.18;;;8.70;99.90;;;;;;6133294;23;20010;-91
2022/03/18 06:27:05;;;;;;;26.40;11.73;;;8.90;99.90;;;;;;6133034;23;20009;-91
2022/03/18 06:29:32;;;;;;;23.90;10.80;;;9.10;99.90;;;;;;6157018;23;20017;-92
2022/03/18 06:31:59;;;;;;;26.45;9.65;;;9.20;99.90;;;;;;6132587;23;20006;-92
2022/03/18 06:34:26;;;;;;;23.60;10.50;;;9.30;99.90;;;;;;6132751;23;20432;-93
2022/03/18 06:36:57;;;;;;;24.60;10.55;;;9.50;99.90;;;;;;6132551;23;20035;-92
2022/03/18 06:39:25;;;;;;;24.90;11.70;;;9.60;99.90;;;;;;6157137;23;20013;-95
2022/03/18 06:41:56;;;;;;;22.40;10.43;;;9.70;99.90;;;;;;6132542;23;20014;-93
2022/03/18 06:44:24;;;;;;;28.95;11.18;;;9.90;99.90;;;;;;6133001;23;20013;-93
2022/03/18 06:46:58;;;;;;;29.65;10.68;;;10.00;99.90;;;;;;6157270;23;20029;-92
2022/03/18 06:49:25;;;;;;;20.58;9.32;;;9.90;99.90;;;;;;6157427;23;20383;-95
2022/03/18 06:51:51;;;;;;;21.02;10.38;;;9.90;99.90;;;;;;6157199;23;20014;-94
2022/03/18 06:54:21;;;;;;;22.77;10.07;;;9.90;99.90;;;;;;6132902;23;20009;-93
2022/03/18 06:56:51;;;;;;;23.80;9.63;;;9.80;99.90;;;;;;6131067;23;20486;-93
2022/03/18 06:59:21;;;;;;;23.90;9.60;;;9.90;99.90;;;;;;6156789;23;20316;-93
2022/03/18 07:01:48;;;;;;;24.48;9.95;;;9.90;99.90;;;;;;6158117;23;20016;-92
2022/03/18 07:04:21;;;;;;;28.17;11.43;;;10.10;99.90;;;;;;6162073;23;20013;-93
2022/03/18 07:06:47;;;;;;;28.70;13.02;;;10.30;99.90;;;;;;6186755;23;20037;-94
2022/03/18 07:09:14;;;;;;;29.30;13.10;;;10.40;99.90;;;;;;6161797;23;20339;-93
2022/03/18 07:11:41;;;;;;;33.50;12.35;;;10.70;99.90;;;;;;6186774;23;20049;-93
2022/03/18 07:14:08;;;;;;;27.67;10.77;;;10.90;99.90;;;;;;6161778;23;20042;-93
2022/03/18 07:19:20;;;;;;;21.73;10.15;;;11.20;99.90;;;;;;6186644;23;20009;-92
2022/03/18 07:21:46;;;;;;;18.00;8.30;;;11.70;99.90;;;;;;6161841;23;20431;-89
2022/03/18 07:24:14;;;;;;;19.25;8.02;;;12.20;99.90;;;;;;6162197;23;20015;-94
2022/03/18 07:26:40;;;;;;;16.83;7.28;;;12.50;99.90;;;;;;6161480;23;20067;-93
2022/03/18 07:29:07;;;;;;;15.20;7.78;;;12.80;99.90;;;;;;6161537;23;20017;-93
2022/03/18 07:31:34;;;;;;;18.00;8.13;;;12.90;99.90;;;;;;6162144;23;20013;-93
2022/03/18 07:34:02;;;;;;;17.15;7.13;;;13.00;99.90;;;;;;6161694;23;20005;-95
2022/03/18 07:36:33;;;;;;;15.80;7.38;;;13.10;99.90;;;;;;6161814;23;20005;-94
2022/03/18 07:38:59;;;;;;;21.48;7.50;;;13.50;99.90;;;;;;6162195;23;20016;-94
2022/03/18 07:41:29;;;;;;;18.55;7.82;;;13.60;99.90;;;;;;6161763;23;20060;-94
2022/03/18 07:44:02;;;;;;;13.35;6.55;;;13.70;99.90;;;;;;6162019;23;20034;-94
2022/03/18 07:46:29;;;;;;;13.90;5.80;;;14.00;99.90;;;;;;6161723;23;20031;-94
2022/03/18 07:48:58;;;;;;;20.33;6.15;;;14.20;99.90;;;;;;6161265;23;20020;-94
2022/03/18 07:51:30;;;;;;;20.58;6.30;;;14.40;99.90;;;;;;6161501;23;20043;-95
2022/03/18 07:54:01;;;;;;;16.67;6.32;;;14.50;99.90;;;;;;6161377;23;20013;-92
2022/03/18 07:56:30;;;;;;;13.88;5.75;;;14.60;99.90;;;;;;6161604;23;20443;-94
2022/03/18 08:01:39;;;;;;;18.58;5.70;;;14.50;99.90;;;;;;6205073;22;20458;-92
2022/03/18 08:04:09;;;;;;;18.27;5.90;;;14.50;99.90;;;;;;6166369;23;20509;-91
2022/03/18 08:06:36;;;;;;;10.82;5.20;;;14.60;99.90;;;;;;6191430;23;20009;-90
2022/03/18 08:09:04;;;;;;;12.00;5.47;;;14.80;99.90;;;;;;6166214;23;20043;-91
2022/03/18 08:11:34;;;;;;;9.50;4.60;;;15.00;99.90;;;;;;6166334;23;20008;-92
2022/03/18 08:14:01;;;;;;;12.38;5.28;;;15.10;99.90;;;;;;6167270;23;20063;-91
2022/03/18 08:16:28;;;;;;;13.85;4.65;;;15.20;99.90;;;;;;6166269;23;20004;-90
2022/03/18 08:18:57;;;;;;;13.02;4.20;;;15.40;99.90;;;;;;6166309;23;20005;-92
2022/03/18 08:21:24;;;;;;;15.02;4.82;;;15.60;99.90;;;;;;6166017;23;20016;-92
2022/03/18 08:23:51;;;;;;;12.77;4.88;;;15.60;99.90;;;;;;6166160;23;20005;-93
2022/03/18 08:26:18;;;;;;;11.90;5.10;;;15.80;99.90;;;;;;6166211;23;20028;-91
2022/03/18 08:28:47;;;;;;;9.55;4.10;;;15.80;99.90;;;;;;6166059;23;20080;-92
2022/03/18 08:31:14;;;;;;;10.95;5.60;;;15.90;99.90;;;;;;6166030;23;20088;-93
2022/03/18 08:33:41;;;;;;;14.93;4.15;;;15.90;99.90;;;;;;6166209;23;20012;-92
2022/03/18 08:36:07;;;;;;;15.45;4.13;;;15.90;99.90;;;;;;6166104;23;20000;-93
2022/03/18 08:38:34;;;;;;;19.75;5.32;;;15.90;99.90;;;;;;6166045;23;20342;-92
2022/03/18 08:41:01;;;;;;;7.40;4.68;;;15.80;99.90;;;;;;6166003;23;20430;-91
2022/03/18 08:43:28;;;;;;;13.15;5.22;;;15.80;99.90;;;;;;6165787;23;20016;-92
2022/03/18 08:45:55;;;;;;;11.32;4.85;;;15.60;99.90;;;;;;6166066;23;20009;-92
2022/03/18 08:48:28;;;;;;;17.85;7.68;;;15.30;99.90;;;;;;6166524;23;20015;-91
2022/03/18 08:50:55;;;;;;;18.37;4.70;;;15.30;99.90;;;;;;6166010;23;20319;-92
2022/03/18 08:53:22;;;;;;;11.05;4.45;;;15.20;99.90;;;;;;6165856;23;20013;-92
2022/03/18 08:55:49;;;;;;;12.60;4.47;;;15.40;99.90;;;;;;6166072;23;20119;-91
2022/03/18 08:58:16;;;;;;;13.15;4.03;;;15.20;99.90;;;;;;6165731;23;20012;-93
2022/03/18 09:01:08;;;;;;;9.82;4.40;;;15.10;99.90;;;;;;6167847;23;20011;-94
2022/03/18 09:03:35;;;;;;;9.70;4.00;;;14.80;99.90;;;;;;6163054;23;20021;-82
2022/03/18 09:06:03;;;;;;;15.13;4.18;;;14.70;99.90;;;;;;6187730;23;20048;-80
2022/03/18 09:08:30;;;;;;;19.13;4.13;;;14.50;99.90;;;;;;6189590;23;20013;-89
2022/03/18 09:10:56;;;;;;;12.57;4.47;;;14.10;99.90;;;;;;6163267;23;20009;-89
2022/03/18 09:13:23;;;;;;;8.73;4.38;;;13.90;99.90;;;;;;6160973;23;20083;-80
2022/03/18 09:15:53;;;;;;;8.50;3.38;;;13.80;99.90;;;;;;6159945;23;20011;-81
2022/03/18 09:18:23;;;;;;;13.80;3.53;;;13.40;99.90;;;;;;6160091;23;20423;-80
2022/03/18 09:20:49;;;;;;;7.85;3.17;;;13.30;99.90;;;;;;6159563;23;20016;-80
2022/03/18 09:23:16;;;;;;;16.10;4.35;;;13.10;99.90;;;;;;6135119;23;20013;-80
2022/03/18 09:25:43;;;;;;;10.77;4.75;;;13.00;99.90;;;;;;6159532;23;20495;-80
2022/03/18 09:28:10;;;;;;;9.35;4.13;;;13.00;99.90;;;;;;6159525;23;20414;-82
2022/03/18 09:30:36;;;;;;;13.63;5.80;;;12.90;99.90;;;;;;6159701;23;20084;-81
2022/03/18 09:33:03;;;;;;;9.05;4.18;;;12.90;99.90;;;;;;6135517;23;20411;-82
2022/03/18 09:35:30;;;;;;;10.95;5.18;;;12.80;99.90;;;;;;6160089;23;20005;-84
2022/03/18 09:37:56;;;;;;;11.38;4.75;;;12.80;99.90;;;;;;6159825;23;20036;-83
2022/03/18 09:40:23;;;;;;;12.80;5.18;;;12.90;99.90;;;;;;6135059;23;20013;-82
2022/03/18 09:43:00;;;;;;;16.70;5.13;;;12.80;99.90;;;;;;6159650;23;20015;-82
2022/03/18 09:45:31;;;;;;;17.38;5.53;;;12.80;99.90;;;;;;6159585;23;20016;-81
2022/03/18 09:48:06;;;;;;;18.33;6.15;;;12.80;99.90;;;;;;6160293;23;20040;-82
2022/03/18 09:50:34;;;;;;;15.93;5.22;;;12.80;99.90;;;;;;6161401;23;20017;-82
2022/03/18 09:53:01;;;;;;;14.05;5.55;;;12.80;99.90;;;;;;6137000;23;20379;-81
2022/03/18 09:55:30;;;;;;;14.07;5.78;;;12.80;99.90;;;;;;6186540;23;20016;-82
2022/03/18 09:58:00;;;;;;;14.82;6.15;;;12.90;99.90;;;;;;6187891;23;20005;-82
2022/03/18 10:00:28;;;;;;;15.40;5.15;;;12.90;99.90;;;;;;6186327;23;20013;-81
2022/03/18 10:03:19;;;;;;;19.77;6.53;;;12.90;99.90;;;;;;6177978;23;20024;-82
2022/03/18 10:05:46;;;;;;;13.35;5.45;;;12.90;99.90;;;;;;6187952;23;20032;-81
2022/03/18 10:08:21;;;;;;;16.88;5.82;;;13.00;99.90;;;;;;6161499;23;20013;-81
2022/03/18 10:10:50;;;;;;;15.55;5.28;;;12.90;99.90;;;;;;6161654;23;20009;-81
2022/03/18 10:13:18;;;;;;;12.70;5.43;;;12.90;99.90;;;;;;6161299;23;20012;-81
2022/03/18 10:15:46;;;;;;;21.98;5.45;;;12.90;99.90;;;;;;6187859;23;20001;-81
2022/03/18 10:18:16;;;;;;;12.82;5.45;;;12.90;99.90;;;;;;6161449;23;20037;-82
2022/03/18 10:20:48;;;;;;;14.63;5.30;;;12.90;99.90;;;;;;6186266;23;20503;-81
2022/03/18 10:23:25;;;;;;;12.68;5.03;;;12.90;99.90;;;;;;6161446;23;20016;-81
2022/03/18 10:25:55;;;;;;;21.10;6.15;;;12.90;99.90;;;;;;6186295;23;20040;-81
2022/03/18 10:28:40;;;;;;;18.40;5.93;;;13.10;99.90;;;;;;6161367;23;20024;-81
2022/03/18 10:31:25;;;;;;;21.85;4.95;;;13.00;99.90;;;;;;6186476;23;20059;-81
2022/03/18 10:37:06;;;;;;;18.70;5.00;;;13.00;99.90;;;;;;6186027;23;20013;-81
2022/03/18 10:39:43;;;;;;;21.52;5.03;;;12.90;99.90;;;;;;6186016;23;20041;-81
2022/03/18 10:42:12;;;;;;;9.18;4.60;;;12.90;99.90;;;;;;6161473;23;20009;-81
2022/03/18 10:44:55;;;;;;;12.40;4.18;;;12.80;99.90;;;;;;6160916;23;20016;-81
2022/03/18 10:47:36;;;;;;;12.88;4.70;;;12.90;99.90;;;;;;6185878;23;20040;-81
2022/03/18 10:50:14;;;;;;;19.05;4.65;;;12.80;99.90;;;;;;6161179;23;20017;-81
2022/03/18 10:52:47;;;;;;;15.35;4.55;;;12.80;99.90;;;;;;6161035;23;20067;-81
2022/03/18 10:55:19;;;;;;;14.52;5.00;;;12.80;99.90;;;;;;6185590;23;20064;-81
2022/03/18 10:57:55;;;;;;;13.73;4.50;;;12.80;99.90;;;;;;6185850;23;20013;-81
2022/03/18 11:00:34;;;;;;;13.00;4.32;;;12.80;99.90;;;;;;6161110;23;20055;-81
2022/03/18 11:03:03;;;;;;;25.55;5.05;;;12.80;99.90;;;;;;6185586;23;20538;-81
2022/03/18 11:05:35;;;;;;;13.57;5.65;;;12.90;99.90;;;;;;6185763;23;20013;-81
2022/03/18 11:08:04;;;;;;;15.32;5.40;;;12.90;99.90;;;;;;6160833;23;20017;-81
2022/03/18 11:13:20;;;;;;;11.07;4.57;;;12.80;99.90;;;;;;6185652;23;20012;-81
2022/03/18 11:15:49;;;;;;;9.85;3.97;;;12.90;99.90;;;;;;6160683;23;20325;-81
2022/03/18 11:18:16;;;;;;;12.93;5.20;;;12.80;99.90;;;;;;6160817;23;20063;-81
2022/03/18 11:20:43;;;;;;;17.13;5.20;;;12.90;99.90;;;;;;6185519;23;20466;-81
2022/03/18 11:23:25;;;;;;;10.85;4.30;;;13.00;99.90;;;;;;6160795;23;20060;-81
2022/03/18 11:26:00;;;;;;;12.50;4.05;;;13.10;99.90;;;;;;6185554;23;20081;-81
2022/03/18 11:28:28;;;;;;;9.80;3.10;;;13.20;99.90;;;;;;6186988;23;20013;-80
2022/03/18 11:31:17;;;;;;;18.75;3.75;;;13.10;99.90;;;;;;6185440;23;20015;-80
2022/03/18 11:34:08;;;;;;;9.77;2.97;;;13.30;99.90;;;;;;6160747;23;20017;-80
2022/03/18 11:36:44;;;;;;;7.72;3.38;;;13.40;99.90;;;;;;6160827;23;20012;-80
2022/03/18 11:39:18;;;;;;;12.00;3.45;;;13.40;99.90;;;;;;6160634;23;20422;-80
2022/03/18 11:41:52;;;;;;;19.50;3.85;;;13.30;99.90;;;;;;6186974;23;20005;-80
2022/03/18 11:44:58;;;;;;;10.02;3.17;;;13.30;99.90;;;;;;6185298;23;20009;-80
2022/03/18 11:47:31;;;;;;;9.70;3.70;;;13.30;99.90;;;;;;6043046;23;20018;-80
2022/03/18 11:50:00;;;;;;;7.68;2.80;;;13.30;99.90;;;;;;6019470;23;20094;-80
2022/03/18 11:52:27;;;;;;;8.68;2.22;;;13.30;99.90;;;;;;6067522;23;20015;-80
2022/03/18 11:55:11;;;;;;;8.88;3.10;;;13.30;99.90;;;;;;6019272;23;20010;-80
2022/03/18 11:57:45;;;;;;;12.23;3.40;;;13.10;99.90;;;;;;6043188;23;20011;-80
2022/03/18 12:00:35;;;;;;;11.70;3.50;;;13.10;99.90;;;;;;6043603;23;20239;-80
2022/03/18 12:03:04;;;;;;;6.10;2.58;;;13.20;99.90;;;;;;6019025;23;20098;-80
2022/03/18 12:05:32;;;;;;;13.00;3.67;;;13.30;99.90;;;;;;6066789;23;20050;-80
2022/03/18 12:07:59;;;;;;;6.63;2.92;;;13.30;99.90;;;;;;6042816;23;20032;-80
2022/03/18 12:10:36;;;;;;;3.58;2.33;;;13.40;99.90;;;;;;6019193;23;20002;-80
2022/03/18 12:13:06;;;;;;;7.43;3.03;;;13.40;99.90;;;;;;6067208;23;20268;-80
2022/03/18 12:15:40;;;;;;;12.35;3.40;;;13.50;99.90;;;;;;6042808;23;20049;-80
2022/03/18 12:18:08;;;;;;;4.43;1.70;;;13.60;99.90;;;;;;6042593;23;20021;-80
2022/03/18 12:20:42;;;;;;;9.27;2.20;;;13.40;99.90;;;;;;6066891;23;20003;-80
2022/03/18 12:23:09;;;;;;;10.07;2.58;;;13.30;99.90;;;;;;6130142;23;20031;-80
2022/03/18 12:25:40;;;;;;;5.25;2.95;;;13.20;99.90;;;;;;6184962;23;20012;-80
2022/03/18 12:28:09;;;;;;;10.60;2.88;;;13.20;99.90;;;;;;6186706;23;20016;-80
2022/03/18 12:30:37;;;;;;;17.25;2.38;;;13.10;99.90;;;;;;6186409;23;20029;-80
2022/03/18 12:33:06;;;;;;;6.22;2.45;;;13.00;99.90;;;;;;6159914;23;20020;-79
2022/03/18 12:35:45;;;;;;;4.93;2.47;;;12.90;99.90;;;;;;6185475;23;20001;-80
2022/03/18 12:38:14;;;;;;;8.10;2.90;;;12.90;99.90;;;;;;6184948;23;20075;-79
2022/03/18 12:40:43;;;;;;;19.10;4.78;;;12.90;99.90;;;;;;6184945;23;20005;-80
2022/03/18 12:43:17;;;;;;;12.80;3.95;;;12.90;99.90;;;;;;6159962;23;20088;-80
2022/03/18 12:45:50;;;;;;;14.70;3.58;;;13.00;99.90;;;;;;6186862;23;20123;-80
2022/03/18 12:48:21;;;;;;;9.88;3.63;;;13.10;99.90;;;;;;6184934;23;20338;-80
2022/03/18 12:50:50;;;;;;;11.90;4.72;;;13.00;99.90;;;;;;6184774;23;20012;-80
2022/03/18 12:53:42;;;;;;;11.95;4.00;;;13.00;99.90;;;;;;6186664;23;20308;-80
2022/03/18 12:56:19;;;;;;;11.25;3.90;;;12.90;99.90;;;;;;6179263;23;20056;-80
2022/03/18 12:58:57;;;;;;;9.82;3.72;;;13.00;99.90;;;;;;6184649;23;20016;-80
2022/03/18 13:01:25;;;;;;;9.25;4.47;;;13.00;99.90;;;;;;6187445;23;20009;-79
2022/03/18 13:03:52;;;;;;;12.32;4.75;;;12.90;99.90;;;;;;6189714;23;20020;-80
2022/03/18 13:06:27;;;;;;;15.93;3.92;;;12.90;99.90;;;;;;6189573;23;20004;-80
2022/03/18 13:09:06;;;;;;;7.72;4.00;;;12.80;99.90;;;;;;6189430;23;20024;-80
2022/03/18 13:11:35;;;;;;;14.98;4.55;;;12.90;99.90;;;;;;6189468;23;20012;-80
2022/03/18 13:14:04;;;;;;;10.85;4.18;;;12.90;99.90;;;;;;6164580;23;20063;-80
2022/03/18 13:16:43;;;;;;;11.43;3.50;;;12.90;99.90;;;;;;6164753;23;20005;-80
2022/03/18 13:19:12;;;;;;;16.23;3.58;;;12.90;99.90;;;;;;6164640;23;20012;-80
2022/03/18 13:21:47;;;;;;;13.98;3.65;;;12.80;99.90;;;;;;6164710;23;20000;-81
2022/03/18 13:24:15;;;;;;;22.73;6.55;;;12.80;99.90;;;;;;6189171;23;20016;-81
2022/03/18 13:26:45;;;;;;;12.80;4.88;;;12.90;99.90;;;;;;6216093;23;20050;-82
2022/03/18 13:29:12;;;;;;;15.52;3.70;;;12.90;99.90;;;;;;6164651;23;20021;-82
2022/03/18 13:34:33;;;;;;;14.38;4.00;;;12.80;99.90;;;;;;6189798;23;20015;-82
2022/03/18 13:37:13;;;;;;;10.85;3.80;;;12.90;99.90;;;;;;6164960;23;20036;-80
2022/03/18 13:39:49;;;;;;;10.88;3.92;;;12.80;99.90;;;;;;6189293;23;20080;-81
2022/03/18 13:42:34;;;;;;;7.93;4.20;;;12.70;99.90;;;;;;6189550;23;20013;-81
2022/03/18 13:45:00;;;;;;;12.85;5.07;;;12.80;99.90;;;;;;6164826;23;20013;-83
2022/03/18 13:47:28;;;;;;;14.00;4.30;;;12.80;99.90;;;;;;6165334;23;20008;-85
2022/03/18 13:49:58;;;;;;;9.27;3.92;;;12.90;99.90;;;;;;6165351;23;20350;-84
2022/03/18 13:52:35;;;;;;;12.07;3.50;;;12.90;99.90;;;;;;6165328;23;20338;-86
2022/03/18 13:55:02;;;;;;;9.73;4.45;;;12.90;99.90;;;;;;6164979;23;20141;-86
2022/03/18 13:57:48;;;;;;;12.38;4.57;;;12.90;99.90;;;;;;6165342;23;20088;-82
2022/03/18 14:00:26;;;;;;;8.45;3.75;;;12.90;99.90;;;;;;6189811;23;20012;-85
2022/03/18 14:03:03;;;;;;;11.85;3.90;;;12.90;99.90;;;;;;6160150;23;20017;-84
2022/03/18 14:05:32;;;;;;;8.43;3.53;;;12.90;99.90;;;;;;6160125;23;20479;-82
2022/03/18 14:08:00;;;;;;;9.35;3.38;;;12.90;99.90;;;;;;6159669;23;20009;-82
2022/03/18 14:10:40;;;;;;;12.77;3.92;;;12.80;99.90;;;;;;6135203;23;20092;-82
2022/03/18 14:13:08;;;;;;;15.80;4.78;;;12.80;99.90;;;;;;6135111;23;20017;-81
2022/03/18 14:15:49;;;;;;;25.00;5.03;;;12.80;99.90;;;;;;6159308;23;20016;-82
2022/03/18 14:18:21;;;;;;;19.85;7.05;;;12.70;99.90;;;;;;6159420;23;20323;-81
2022/03/18 14:20:51;;;;;;;12.52;5.30;;;12.80;99.90;;;;;;6184247;23;20044;-82
2022/03/18 14:23:19;;;;;;;16.10;4.93;;;12.80;99.90;;;;;;6184527;23;20032;-82
2022/03/18 14:25:48;;;;;;;12.75;5.53;;;12.70;99.90;;;;;;6159854;23;20005;-83
2022/03/18 14:28:19;;;;;;;16.92;6.15;;;12.70;99.90;;;;;;6184186;23;20045;-80
2022/03/18 14:30:49;;;;;;;24.35;4.75;;;12.70;99.90;;;;;;6159424;23;20032;-80
2022/03/18 15:30:25;;;;;;;19.83;7.50;;;12.50;99.90;;;;;;6224101;23;20031;-93
2022/03/18 15:32:55;;;;;;;16.63;6.38;;;12.50;99.90;;;;;;6176871;23;20005;-91
2022/03/18 15:35:21;;;;;;;15.45;7.65;;;12.50;99.90;;;;;;6161622;23;20076;-91
2022/03/18 15:37:50;;;;;;;18.25;6.80;;;12.50;99.90;;;;;;6137597;23;20009;-90
2022/03/18 15:40:16;;;;;;;18.02;7.30;;;12.50;99.90;;;;;;6137245;23;20454;-91
2022/03/18 15:42:44;;;;;;;28.48;9.77;;;12.40;99.90;;;;;;6137612;23;20016;-90
2022/03/18 15:45:11;;;;;;;41.88;14.80;;;12.40;99.90;;;;;;6136758;23;20002;-92
2022/03/18 15:47:38;;;;;;;30.65;10.30;;;12.50;99.90;;;;;;6136939;23;20021;-92
2022/03/18 15:50:12;;;;;;;18.65;7.88;;;12.50;99.90;;;;;;6161512;23;20096;-92
2022/03/18 15:52:38;;;;;;;;;;;12.50;99.90;;;;;;6137875;23;20009;-93
2022/03/18 15:55:19;;;;;;;22.30;7.07;;;12.50;99.90;;;;;;6137627;23;19929;-93
2022/03/18 15:57:51;;;;;;;16.13;6.05;;;12.50;99.90;;;;;;6139348;23;20012;-91
2022/03/18 16:00:20;;;;;;;11.57;5.05;;;12.50;99.90;;;;;;6138332;23;20009;-92
2022/03/18 16:03:04;;;;;;;22.15;5.85;;;12.50;99.90;;;;;;6136879;23;20005;-92
2022/03/18 16:05:34;;;;;;;18.25;7.30;;;12.50;99.90;;;;;;6136941;23;20009;-91
2022/03/18 16:08:01;;;;;;;19.15;8.27;;;12.50;99.90;;;;;;6136661;23;20017;-91
2022/03/18 16:29:56;;;;;;;27.58;12.05;;;12.30;99.90;;;;;;6212441;22;20028;-92
2022/03/18 16:32:24;;;;;;;29.67;11.52;;;12.40;99.90;;;;;;6161175;23;20088;-92
2022/03/18 16:35:18;;;;;;;24.90;12.30;;;12.40;99.90;;;;;;6186385;23;20009;-93
2022/03/18 16:37:48;;;;;;;25.45;12.75;;;12.30;99.90;;;;;;6186667;23;20009;-91
2022/03/18 16:40:15;;;;;;;32.42;14.25;;;12.30;99.90;;;;;;6186328;23;20055;-92
2022/03/18 16:42:43;;;;;;;31.30;13.02;;;12.30;99.90;;;;;;6186563;23;20009;-93
2022/03/18 16:45:14;;;;;;;28.08;11.65;;;12.30;99.90;;;;;;6185781;23;20013;-92
2022/03/18 16:50:26;;;;;;;31.35;11.63;;;12.30;99.90;;;;;;6186271;23;20036;-91
2022/03/18 16:52:53;;;;;;;32.47;12.00;;;12.30;99.90;;;;;;6160965;23;20088;-91
2022/03/18 16:55:21;;;;;;;30.85;11.95;;;12.30;99.90;;;;;;6185703;23;20019;-92
2022/03/18 16:57:49;;;;;;;29.25;13.57;;;12.30;99.90;;;;;;6185734;23;20513;-94
2022/03/18 17:00:22;;;;;;;34.13;14.07;;;12.30;99.90;;;;;;6185525;23;20013;-93
2022/03/18 17:02:50;;;;;;;31.30;13.80;;;12.30;99.90;;;;;;6160948;23;20016;-91
2022/03/18 17:05:18;;;;;;;33.45;13.20;;;12.20;99.90;;;;;;6161176;23;20084;-92
2022/03/18 17:44:33;;;;;;;32.67;14.32;;;12.20;99.90;;;;;;6182734;22;20035;31
2022/03/18 17:49:58;;;;;;;33.25;14.05;;;12.20;99.90;;;;;;6221123;22;20080;-93
2022/03/18 18:28:13;;;;;;;42.40;18.42;;;12.00;99.90;;;;;;6137521;23;20041;-92
2022/03/18 18:43:15;;;;;;;55.63;21.33;;;11.90;99.90;;;;;;6201648;22;20021;-93
2022/03/18 19:11:17;;;;;;;42.80;17.58;;;11.90;99.90;;;;;;6215879;22;20031;-93
2022/03/18 19:14:05;;;;;;;42.72;14.85;;;11.80;99.90;;;;;;6133184;23;20013;-93
2022/03/18 19:16:35;;;;;;;35.13;13.95;;;11.80;99.90;;;;;;6132791;23;20013;-94
2022/03/18 19:19:36;;;;;;;39.05;15.90;;;11.80;99.90;;;;;;6132683;23;20093;-93
2022/03/18 19:22:10;;;;;;;38.05;15.10;;;11.80;99.90;;;;;;6067520;23;20027;-93
2022/03/18 19:24:37;;;;;;;40.28;15.68;;;11.80;99.90;;;;;;6193090;23;20032;-91
2022/03/18 19:27:04;;;;;;;38.60;14.60;;;11.80;99.90;;;;;;6166838;23;20005;-94
2022/03/18 19:29:54;;;;;;;36.45;14.65;;;11.80;99.90;;;;;;6191795;23;20024;-92
2022/03/18 19:32:41;;;;;;;45.35;14.02;;;11.80;99.90;;;;;;6163078;23;20005;-91
2022/03/18 19:35:10;;;;;;;39.00;16.02;;;11.70;99.90;;;;;;6188373;23;20073;-90
2022/03/18 19:40:54;;;;;;;34.60;14.73;;;11.70;99.90;;;;;;6249373;23;20043;-93
2022/03/18 19:49:59;;;;;;;38.45;14.65;;;11.70;99.90;;;;;;6008806;22;20025;-92
2022/03/18 19:52:44;;;;;;;36.63;13.73;;;11.70;99.90;;;;;;6177296;23;20009;-93
2022/03/18 20:08:08;;;;;;;39.53;15.65;;;11.60;99.90;;;;;;6203774;22;20093;-94
2022/03/18 20:10:49;;;;;;;34.65;14.02;;;11.60;99.90;;;;;;6166829;23;20012;-94
2022/03/18 20:13:28;;;;;;;33.30;13.13;;;11.60;99.90;;;;;;6162338;23;20087;-92
2022/03/18 20:15:58;;;;;;;37.33;16.53;;;11.60;99.90;;;;;;6185825;23;20017;-93
2022/03/18 20:18:29;;;;;;;43.97;17.48;;;11.60;99.90;;;;;;6186440;23;20100;-93
2022/03/18 20:21:00;;;;;;;43.85;16.67;;;11.60;99.90;;;;;;6186174;23;20005;-93
2022/03/18 20:23:34;;;;;;;50.72;21.90;;;11.60;99.90;;;;;;6185848;23;20029;-92
2022/03/18 20:26:06;;;;;;;58.15;22.25;;;11.60;99.90;;;;;;6160884;23;20084;-91
2022/03/18 20:28:40;;;;;;;62.50;23.58;;;11.60;99.90;;;;;;6186185;23;20044;-93
2022/03/18 20:31:20;;;;;;;51.10;20.48;;;11.60;99.90;;;;;;6162023;23;20012;-92
2022/03/18 20:33:49;;;;;;;53.97;20.75;;;11.60;99.90;;;;;;6133280;23;20428;-92
2022/03/18 20:37:03;;;;;;;62.55;23.48;;;11.50;99.90;;;;;;6132893;23;20082;-93
2022/03/18 20:56:55;;;;;;;71.05;26.50;;;11.40;99.90;;;;;;6218901;22;20078;-73
2022/03/18 20:59:24;;;;;;;58.90;23.63;;;11.50;99.90;;;;;;6216843;23;20087;-86
2022/03/18 21:01:51;;;;;;;59.08;25.50;;;11.50;99.90;;;;;;6161237;23;20007;-78
2022/03/18 21:04:17;;;;;;;56.70;24.38;;;11.50;99.90;;;;;;6186346;23;20072;-79
2022/03/18 21:06:44;;;;;;;60.85;22.58;;;11.60;99.90;;;;;;6186232;23;20004;-79
2022/03/18 21:09:10;;;;;;;60.58;25.23;;;11.50;99.90;;;;;;6184810;23;20088;-79
2022/03/18 21:11:37;;;;;;;66.50;25.45;;;11.50;99.90;;;;;;6160336;23;20009;-79
2022/03/18 21:14:03;;;;;;;64.50;27.83;;;11.50;99.90;;;;;;6184483;23;20039;-79
2022/03/18 21:16:33;;;;;;;70.55;28.00;;;11.50;99.90;;;;;;6184979;23;20005;-78
2022/03/18 21:19:01;;;;;;;66.13;26.17;;;11.60;99.90;;;;;;6184805;23;20009;-79
2022/03/18 21:21:35;;;;;;;68.93;24.13;;;11.50;99.90;;;;;;6184618;23;20300;-78
2022/03/18 21:24:04;;;;;;;58.33;22.33;;;11.50;99.90;;;;;;6186383;23;20031;-78
2022/03/18 21:32:05;;;;;;;57.83;22.38;;;11.60;99.90;;;;;;6184562;23;20017;-80
2022/03/18 21:34:32;;;;;;;60.15;24.00;;;11.60;99.90;;;;;;6186298;23;20423;-80
2022/03/18 21:36:59;;;;;;;61.58;23.27;;;11.50;99.90;;;;;;6159552;23;20434;-78
2022/03/18 21:39:25;;;;;;;59.22;22.23;;;11.50;99.90;;;;;;6184586;23;20080;-78
2022/03/18 21:41:52;;;;;;;53.75;23.83;;;11.50;99.90;;;;;;6186255;23;20009;-78
2022/03/18 21:44:19;;;;;;;63.20;24.27;;;11.50;99.90;;;;;;6159184;23;20005;-79
2022/03/18 21:46:46;;;;;;;57.85;22.73;;;11.50;99.90;;;;;;6159553;23;20089;-79
2022/03/18 21:49:14;;;;;;;60.65;22.98;;;11.60;99.90;;;;;;6184914;23;20013;-79
2022/03/18 21:51:41;;;;;;;58.40;23.25;;;11.50;99.90;;;;;;6159566;23;20055;-79
2022/03/18 21:54:14;;;;;;;76.15;29.38;;;11.50;99.90;;;;;;6185865;23;20084;-80
2022/03/18 21:56:41;;;;;;;31.42;15.13;;;11.50;99.90;;;;;;6185587;23;20048;-80
2022/03/18 21:59:07;;;;;;;23.77;10.20;;;11.30;99.90;;;;;;6184903;23;20035;-79
2022/03/18 22:01:34;;;;;;;19.17;7.25;;;11.20;99.90;;;;;;6184378;23;20032;-79
2022/03/18 22:04:00;;;;;;;16.90;5.97;;;11.10;99.90;;;;;;6135118;23;20060;-78
2022/03/18 22:06:28;;;;;;;15.90;5.72;;;11.10;99.90;;;;;;6159505;23;20028;-79
2022/03/18 22:08:54;;;;;;;14.38;5.68;;;11.10;99.90;;;;;;6186057;23;20009;-79
2022/03/18 22:11:22;;;;;;;11.05;5.47;;;11.10;99.90;;;;;;6184287;23;20012;-78
2022/03/18 22:13:49;;;;;;;12.85;4.40;;;11.20;99.90;;;;;;6184802;23;20005;-79
2022/03/18 22:16:16;;;;;;;11.82;4.70;;;11.20;99.90;;;;;;6159436;23;20005;-79
2022/03/18 22:18:43;;;;;;;10.32;4.80;;;11.20;99.90;;;;;;6184403;23;20482;-79
2022/03/18 22:21:10;;;;;;;12.50;5.00;;;11.20;99.90;;;;;;6159473;23;20009;-79
2022/03/18 22:23:38;;;;;;;12.52;4.35;;;11.20;99.90;;;;;;6185762;23;20051;-79
2022/03/18 22:26:05;;;;;;;11.70;3.97;;;11.20;99.90;;;;;;6159324;23;20089;-79
2022/03/18 22:28:34;;;;;;;10.05;3.80;;;11.20;99.90;;;;;;6186348;23;20017;-79
2022/03/18 22:31:00;;;;;;;15.50;4.55;;;11.20;99.90;;;;;;6185708;23;20024;-79
2022/03/18 22:33:27;;;;;;;15.45;4.93;;;11.20;99.90;;;;;;6185821;23;20032;-79
2022/03/18 22:35:54;;;;;;;10.40;3.50;;;11.10;99.90;;;;;;6184490;23;20012;-78
2022/03/18 22:38:21;;;;;;;16.27;5.38;;;11.10;99.90;;;;;;6159316;23;20008;-79
2022/03/18 22:40:47;;;;;;;12.43;4.35;;;11.20;99.90;;;;;;6159625;23;20016;-80
2022/03/18 22:43:15;;;;;;;12.60;4.32;;;11.10;99.90;;;;;;6185770;23;20489;-80
2022/03/18 22:45:42;;;;;;;15.05;4.85;;;11.10;99.90;;;;;;6184085;23;20080;-80
2022/03/18 22:48:09;;;;;;;10.63;4.22;;;11.10;99.90;;;;;;6183936;23;20084;-80
2022/03/18 22:50:35;;;;;;;8.82;4.15;;;11.10;99.90;;;;;;6184105;23;20021;-80
2022/03/18 22:53:02;;;;;;;11.13;4.90;;;11.10;99.90;;;;;;6185978;23;20438;-80
2022/03/18 22:55:29;;;;;;;13.85;4.57;;;11.00;99.90;;;;;;6180197;23;20466;-80
2022/03/18 22:57:55;;;;;;;10.68;3.67;;;10.90;99.90;;;;;;6157823;23;20432;-80
2022/03/18 23:00:29;;;;;;;13.82;3.53;;;10.90;99.90;;;;;;6181284;23;20109;-80
2022/03/18 23:02:57;;;;;;;10.33;4.07;;;11.00;99.90;;;;;;6131643;23;20388;-80
2022/03/18 23:05:23;;;;;;;9.32;4.22;;;11.00;99.90;;;;;;6158569;23;20226;-80
2022/03/18 23:07:50;;;;;;;19.48;5.38;;;10.90;99.90;;;;;;6180617;23;20048;-79